sensor_id;sensor_type;location;lat;lon;timestamp;P1;durP1;ratioP1;P2;durP2;ratioP2
3849;SDS011;1940;51.052;13.678;2022-08-19T00:00:32;24.40;;;13.80;;
3849;SDS011;1940;51.052;13.678;2022-08-19T00:02:57;19.57;;;13.63;;
3849;SDS011;1940;51.052;13.678;2022-08-19T00:05:23;22.00;;;13.87;;
3849;SDS011;1940;51.052;13.678;2022-08-19T00:07:49;20.23;;;13.00;;
3849;SDS011;1940;51.052;13.678;2022-08-19T00:10:16;20.60;;;13.77;;
3849;SDS011;1940;51.052;13.678;2022-08-19T00:12:42;20.40;;;13.80;;
3849;SDS011;1940;51.052;13.678;2022-08-19T00:15:09;20.70;;;13.70;;
3849;SDS011;1940;51.052;13.678;2022-08-19T00:17:41;20.73;;;14.10;;
3849;SDS011;1940;51.052;13.678;2022-08-19T00:20:09;18.60;;;12.93;;
3849;SDS011;1940;51.052;13.678;2022-08-19T00:22:37;21.30;;;14.57;;
3849;SDS011;1940;51.052;13.678;2022-08-19T00:25:03;21.63;;;13.80;;
3849;SDS011;1940;51.052;13.678;2022-08-19T00:27:30;18.57;;;13.33;;
3849;SDS011;1940;51.052;13.678;2022-08-19T00:29:56;21.13;;;14.10;;
3849;SDS011;1940;51.052;13.678;2022-08-19T00:32:21;23.10;;;15.70;;
3849;SDS011;1940;51.052;13.678;2022-08-19T00:34:47;21.73;;;13.93;;
3849;SDS011;1940;51.052;13.678;2022-08-19T00:37:12;19.50;;;14.00;;
3849;SDS011;1940;51.052;13.678;2022-08-19T00:39:38;22.90;;;14.60;;
3849;SDS011;1940;51.052;13.678;2022-08-19T00:42:04;20.20;;;14.23;;
3849;SDS011;1940;51.052;13.678;2022-08-19T00:44:31;20.57;;;14.17;;
3849;SDS011;1940;51.052;13.678;2022-08-19T00:46:57;23.03;;;14.13;;
3849;SDS011;1940;51.052;13.678;2022-08-19T00:49:31;20.03;;;13.50;;
3849;SDS011;1940;51.052;13.678;2022-08-19T00:52:09;23.97;;;14.23;;
3849;SDS011;1940;51.052;13.678;2022-08-19T00:54:39;22.17;;;14.93;;
3849;SDS011;1940;51.052;13.678;2022-08-19T00:57:10;24.67;;;15.00;;
3849;SDS011;1940;51.052;13.678;2022-08-19T00:59:39;21.77;;;15.93;;
3849;SDS011;1940;51.052;13.678;2022-08-19T01:02:06;24.60;;;16.00;;
3849;SDS011;1940;51.052;13.678;2022-08-19T01:04:32;31.93;;;15.70;;
3849;SDS011;1940;51.052;13.678;2022-08-19T01:06:58;22.57;;;15.00;;
3849;SDS011;1940;51.052;13.678;2022-08-19T01:09:24;24.83;;;15.90;;
3849;SDS011;1940;51.052;13.678;2022-08-19T01:11:50;24.33;;;16.00;;
3849;SDS011;1940;51.052;13.678;2022-08-19T01:14:16;24.70;;;16.23;;
3849;SDS011;1940;51.052;13.678;2022-08-19T01:16:42;27.73;;;17.70;;
3849;SDS011;1940;51.052;13.678;2022-08-19T01:19:10;31.67;;;16.07;;
3849;SDS011;1940;51.052;13.678;2022-08-19T01:21:45;25.67;;;17.00;;
3849;SDS011;1940;51.052;13.678;2022-08-19T01:24:17;24.60;;;15.53;;
3849;SDS011;1940;51.052;13.678;2022-08-19T01:26:43;26.27;;;16.67;;
3849;SDS011;1940;51.052;13.678;2022-08-19T01:29:09;25.57;;;15.93;;
3849;SDS011;1940;51.052;13.678;2022-08-19T01:31:36;25.07;;;15.97;;
3849;SDS011;1940;51.052;13.678;2022-08-19T01:34:04;24.67;;;16.17;;
3849;SDS011;1940;51.052;13.678;2022-08-19T01:36:34;23.43;;;16.37;;
3849;SDS011;1940;51.052;13.678;2022-08-19T01:39:02;20.50;;;15.00;;
3849;SDS011;1940;51.052;13.678;2022-08-19T01:41:30;22.10;;;15.80;;
3849;SDS011;1940;51.052;13.678;2022-08-19T01:43:56;23.33;;;15.50;;
3849;SDS011;1940;51.052;13.678;2022-08-19T01:46:21;25.60;;;16.80;;
3849;SDS011;1940;51.052;13.678;2022-08-19T01:48:47;22.23;;;15.17;;
3849;SDS011;1940;51.052;13.678;2022-08-19T01:51:13;23.80;;;16.80;;
3849;SDS011;1940;51.052;13.678;2022-08-19T01:53:39;25.17;;;17.17;;
3849;SDS011;1940;51.052;13.678;2022-08-19T01:56:05;22.77;;;15.57;;
3849;SDS011;1940;51.052;13.678;2022-08-19T01:58:32;24.13;;;15.17;;
3849;SDS011;1940;51.052;13.678;2022-08-19T02:01:02;29.63;;;16.93;;
3849;SDS011;1940;51.052;13.678;2022-08-19T02:03:28;24.57;;;16.80;;
3849;SDS011;1940;51.052;13.678;2022-08-19T02:05:56;25.83;;;16.93;;
3849;SDS011;1940;51.052;13.678;2022-08-19T02:08:24;25.07;;;17.87;;
3849;SDS011;1940;51.052;13.678;2022-08-19T02:10:50;24.20;;;17.10;;
3849;SDS011;1940;51.052;13.678;2022-08-19T02:13:16;21.70;;;15.63;;
3849;SDS011;1940;51.052;13.678;2022-08-19T02:15:42;24.37;;;16.30;;
3849;SDS011;1940;51.052;13.678;2022-08-19T02:18:07;23.27;;;16.33;;
3849;SDS011;1940;51.052;13.678;2022-08-19T02:20:33;26.70;;;16.50;;
3849;SDS011;1940;51.052;13.678;2022-08-19T02:22:59;24.17;;;16.53;;
3849;SDS011;1940;51.052;13.678;2022-08-19T02:25:26;22.10;;;15.33;;
3849;SDS011;1940;51.052;13.678;2022-08-19T02:27:52;24.30;;;16.27;;
3849;SDS011;1940;51.052;13.678;2022-08-19T02:30:18;23.43;;;16.67;;
3849;SDS011;1940;51.052;13.678;2022-08-19T02:32:44;24.10;;;17.93;;
3849;SDS011;1940;51.052;13.678;2022-08-19T02:35:10;27.47;;;17.57;;
3849;SDS011;1940;51.052;13.678;2022-08-19T02:37:37;21.77;;;16.37;;
3849;SDS011;1940;51.052;13.678;2022-08-19T02:40:21;20.70;;;15.97;;
3849;SDS011;1940;51.052;13.678;2022-08-19T02:42:47;23.03;;;15.50;;
3849;SDS011;1940;51.052;13.678;2022-08-19T02:45:13;30.43;;;17.53;;
3849;SDS011;1940;51.052;13.678;2022-08-19T02:47:38;24.30;;;16.37;;
3849;SDS011;1940;51.052;13.678;2022-08-19T02:50:05;24.67;;;16.30;;
3849;SDS011;1940;51.052;13.678;2022-08-19T02:52:32;22.30;;;15.90;;
3849;SDS011;1940;51.052;13.678;2022-08-19T02:54:58;25.17;;;16.93;;
3849;SDS011;1940;51.052;13.678;2022-08-19T02:57:24;24.80;;;16.20;;
3849;SDS011;1940;51.052;13.678;2022-08-19T02:59:50;24.77;;;17.00;;
3849;SDS011;1940;51.052;13.678;2022-08-19T03:02:16;23.70;;;16.60;;
3849;SDS011;1940;51.052;13.678;2022-08-19T03:04:41;25.30;;;17.90;;
3849;SDS011;1940;51.052;13.678;2022-08-19T03:07:07;26.03;;;18.07;;
3849;SDS011;1940;51.052;13.678;2022-08-19T03:09:35;26.13;;;17.40;;
3849;SDS011;1940;51.052;13.678;2022-08-19T03:12:02;26.00;;;16.90;;
3849;SDS011;1940;51.052;13.678;2022-08-19T03:14:30;24.60;;;16.10;;
3849;SDS011;1940;51.052;13.678;2022-08-19T03:16:56;25.73;;;18.33;;
3849;SDS011;1940;51.052;13.678;2022-08-19T03:19:22;26.63;;;17.70;;
3849;SDS011;1940;51.052;13.678;2022-08-19T03:21:48;28.30;;;17.60;;
3849;SDS011;1940;51.052;13.678;2022-08-19T03:24:15;24.90;;;17.70;;
3849;SDS011;1940;51.052;13.678;2022-08-19T03:26:43;28.47;;;18.43;;
3849;SDS011;1940;51.052;13.678;2022-08-19T03:29:12;26.90;;;17.53;;
3849;SDS011;1940;51.052;13.678;2022-08-19T03:31:38;26.93;;;17.10;;
3849;SDS011;1940;51.052;13.678;2022-08-19T03:34:06;26.37;;;17.30;;
3849;SDS011;1940;51.052;13.678;2022-08-19T03:36:32;27.27;;;17.80;;
3849;SDS011;1940;51.052;13.678;2022-08-19T03:38:58;26.03;;;17.13;;
3849;SDS011;1940;51.052;13.678;2022-08-19T03:41:26;29.80;;;18.20;;
3849;SDS011;1940;51.052;13.678;2022-08-19T03:43:55;22.93;;;16.10;;
3849;SDS011;1940;51.052;13.678;2022-08-19T03:46:25;25.03;;;16.77;;
3849;SDS011;1940;51.052;13.678;2022-08-19T03:48:54;23.40;;;16.50;;
3849;SDS011;1940;51.052;13.678;2022-08-19T03:51:28;22.60;;;16.17;;
3849;SDS011;1940;51.052;13.678;2022-08-19T03:54:00;24.83;;;17.37;;
3849;SDS011;1940;51.052;13.678;2022-08-19T03:56:27;25.00;;;16.97;;
3849;SDS011;1940;51.052;13.678;2022-08-19T03:58:53;28.53;;;18.50;;
3849;SDS011;1940;51.052;13.678;2022-08-19T04:01:21;26.70;;;16.90;;
3849;SDS011;1940;51.052;13.678;2022-08-19T04:03:51;24.23;;;16.80;;
3849;SDS011;1940;51.052;13.678;2022-08-19T04:08:48;32.00;;;18.23;;
3849;SDS011;1940;51.052;13.678;2022-08-19T04:11:17;26.03;;;17.30;;
3849;SDS011;1940;51.052;13.678;2022-08-19T04:13:47;27.57;;;17.27;;
3849;SDS011;1940;51.052;13.678;2022-08-19T04:16:16;24.10;;;16.90;;
3849;SDS011;1940;51.052;13.678;2022-08-19T04:18:42;25.07;;;17.40;;
3849;SDS011;1940;51.052;13.678;2022-08-19T04:21:08;25.63;;;17.53;;
3849;SDS011;1940;51.052;13.678;2022-08-19T04:23:41;29.60;;;19.73;;
3849;SDS011;1940;51.052;13.678;2022-08-19T04:26:07;24.60;;;17.57;;
3849;SDS011;1940;51.052;13.678;2022-08-19T04:28:36;31.13;;;19.37;;
3849;SDS011;1940;51.052;13.678;2022-08-19T04:31:02;28.10;;;19.20;;
3849;SDS011;1940;51.052;13.678;2022-08-19T04:33:27;24.13;;;17.40;;
3849;SDS011;1940;51.052;13.678;2022-08-19T04:35:53;24.80;;;17.43;;
3849;SDS011;1940;51.052;13.678;2022-08-19T04:38:20;23.80;;;16.53;;
3849;SDS011;1940;51.052;13.678;2022-08-19T04:40:50;25.73;;;17.30;;
3849;SDS011;1940;51.052;13.678;2022-08-19T04:43:35;24.93;;;16.97;;
3849;SDS011;1940;51.052;13.678;2022-08-19T04:46:04;24.90;;;16.60;;
3849;SDS011;1940;51.052;13.678;2022-08-19T04:48:31;21.30;;;16.00;;
3849;SDS011;1940;51.052;13.678;2022-08-19T04:50:57;25.73;;;17.50;;
3849;SDS011;1940;51.052;13.678;2022-08-19T04:53:24;27.03;;;17.30;;
3849;SDS011;1940;51.052;13.678;2022-08-19T04:55:57;26.93;;;17.53;;
3849;SDS011;1940;51.052;13.678;2022-08-19T04:58:24;23.80;;;16.77;;
3849;SDS011;1940;51.052;13.678;2022-08-19T05:00:51;29.77;;;17.63;;
3849;SDS011;1940;51.052;13.678;2022-08-19T05:03:17;25.60;;;16.53;;
3849;SDS011;1940;51.052;13.678;2022-08-19T05:05:44;25.47;;;16.87;;
3849;SDS011;1940;51.052;13.678;2022-08-19T05:08:11;30.43;;;17.20;;
3849;SDS011;1940;51.052;13.678;2022-08-19T05:10:37;25.33;;;17.63;;
3849;SDS011;1940;51.052;13.678;2022-08-19T05:13:04;26.27;;;17.43;;
3849;SDS011;1940;51.052;13.678;2022-08-19T05:15:30;30.03;;;18.50;;
3849;SDS011;1940;51.052;13.678;2022-08-19T05:17:56;27.63;;;18.20;;
3849;SDS011;1940;51.052;13.678;2022-08-19T05:20:40;31.40;;;19.10;;
3849;SDS011;1940;51.052;13.678;2022-08-19T05:23:25;24.67;;;17.53;;
3849;SDS011;1940;51.052;13.678;2022-08-19T05:25:51;28.30;;;17.60;;
3849;SDS011;1940;51.052;13.678;2022-08-19T05:28:17;34.23;;;16.93;;
3849;SDS011;1940;51.052;13.678;2022-08-19T05:30:44;27.40;;;17.73;;
3849;SDS011;1940;51.052;13.678;2022-08-19T05:33:10;26.37;;;17.53;;
3849;SDS011;1940;51.052;13.678;2022-08-19T05:35:37;23.53;;;16.83;;
3849;SDS011;1940;51.052;13.678;2022-08-19T05:38:03;24.17;;;16.30;;
3849;SDS011;1940;51.052;13.678;2022-08-19T05:40:31;28.73;;;17.73;;
3849;SDS011;1940;51.052;13.678;2022-08-19T05:43:00;25.20;;;17.03;;
3849;SDS011;1940;51.052;13.678;2022-08-19T05:45:27;25.50;;;17.47;;
3849;SDS011;1940;51.052;13.678;2022-08-19T05:47:52;24.13;;;16.83;;
3849;SDS011;1940;51.052;13.678;2022-08-19T05:50:18;21.93;;;14.20;;
3849;SDS011;1940;51.052;13.678;2022-08-19T05:52:44;21.17;;;14.50;;
3849;SDS011;1940;51.052;13.678;2022-08-19T05:55:10;19.80;;;13.83;;
3849;SDS011;1940;51.052;13.678;2022-08-19T05:57:35;18.73;;;13.67;;
3849;SDS011;1940;51.052;13.678;2022-08-19T06:00:01;15.97;;;12.07;;
3849;SDS011;1940;51.052;13.678;2022-08-19T06:02:32;16.90;;;12.07;;
3849;SDS011;1940;51.052;13.678;2022-08-19T06:04:58;20.20;;;11.67;;
3849;SDS011;1940;51.052;13.678;2022-08-19T06:07:23;16.20;;;11.50;;
3849;SDS011;1940;51.052;13.678;2022-08-19T06:09:49;16.60;;;11.80;;
3849;SDS011;1940;51.052;13.678;2022-08-19T06:12:15;17.23;;;11.63;;
3849;SDS011;1940;51.052;13.678;2022-08-19T06:14:41;14.03;;;10.67;;
3849;SDS011;1940;51.052;13.678;2022-08-19T06:17:06;14.37;;;10.60;;
3849;SDS011;1940;51.052;13.678;2022-08-19T06:19:32;14.30;;;10.60;;
3849;SDS011;1940;51.052;13.678;2022-08-19T06:21:58;15.40;;;10.40;;
3849;SDS011;1940;51.052;13.678;2022-08-19T06:24:26;13.10;;;9.50;;
3849;SDS011;1940;51.052;13.678;2022-08-19T06:26:54;13.53;;;10.27;;
3849;SDS011;1940;51.052;13.678;2022-08-19T06:29:22;14.10;;;10.10;;
3849;SDS011;1940;51.052;13.678;2022-08-19T06:31:49;12.83;;;10.20;;
3849;SDS011;1940;51.052;13.678;2022-08-19T06:34:17;18.20;;;10.97;;
3849;SDS011;1940;51.052;13.678;2022-08-19T06:36:44;16.33;;;11.37;;
3849;SDS011;1940;51.052;13.678;2022-08-19T06:39:14;14.30;;;10.00;;
3849;SDS011;1940;51.052;13.678;2022-08-19T06:41:49;16.70;;;10.50;;
3849;SDS011;1940;51.052;13.678;2022-08-19T06:44:18;16.73;;;11.47;;
3849;SDS011;1940;51.052;13.678;2022-08-19T06:46:45;16.40;;;11.53;;
3849;SDS011;1940;51.052;13.678;2022-08-19T06:49:12;15.80;;;11.37;;
3849;SDS011;1940;51.052;13.678;2022-08-19T06:51:39;17.90;;;12.33;;
3849;SDS011;1940;51.052;13.678;2022-08-19T06:54:09;16.40;;;11.10;;
3849;SDS011;1940;51.052;13.678;2022-08-19T06:56:35;17.50;;;11.63;;
3849;SDS011;1940;51.052;13.678;2022-08-19T06:59:02;21.90;;;13.33;;
3849;SDS011;1940;51.052;13.678;2022-08-19T07:01:30;20.20;;;12.07;;
3849;SDS011;1940;51.052;13.678;2022-08-19T07:03:59;19.47;;;12.53;;
3849;SDS011;1940;51.052;13.678;2022-08-19T07:06:26;22.60;;;12.70;;
3849;SDS011;1940;51.052;13.678;2022-08-19T07:08:51;21.40;;;13.40;;
3849;SDS011;1940;51.052;13.678;2022-08-19T07:11:17;18.70;;;13.00;;
3849;SDS011;1940;51.052;13.678;2022-08-19T07:13:43;20.47;;;13.63;;
3849;SDS011;1940;51.052;13.678;2022-08-19T07:16:11;21.37;;;14.00;;
3849;SDS011;1940;51.052;13.678;2022-08-19T07:18:39;20.60;;;13.33;;
3849;SDS011;1940;51.052;13.678;2022-08-19T07:21:06;20.37;;;14.10;;
3849;SDS011;1940;51.052;13.678;2022-08-19T07:23:36;21.77;;;13.03;;
3849;SDS011;1940;51.052;13.678;2022-08-19T07:26:11;22.73;;;13.83;;
3849;SDS011;1940;51.052;13.678;2022-08-19T07:28:40;20.27;;;13.77;;
3849;SDS011;1940;51.052;13.678;2022-08-19T07:31:08;22.43;;;13.93;;
3849;SDS011;1940;51.052;13.678;2022-08-19T07:33:35;20.57;;;13.47;;
3849;SDS011;1940;51.052;13.678;2022-08-19T07:36:02;21.60;;;14.40;;
3849;SDS011;1940;51.052;13.678;2022-08-19T07:38:36;28.43;;;15.00;;
3849;SDS011;1940;51.052;13.678;2022-08-19T07:41:01;25.50;;;14.13;;
3849;SDS011;1940;51.052;13.678;2022-08-19T07:43:28;25.13;;;14.57;;
3849;SDS011;1940;51.052;13.678;2022-08-19T07:45:54;23.27;;;14.67;;
3849;SDS011;1940;51.052;13.678;2022-08-19T07:48:24;29.70;;;14.53;;
3849;SDS011;1940;51.052;13.678;2022-08-19T07:50:55;23.53;;;14.27;;
3849;SDS011;1940;51.052;13.678;2022-08-19T07:53:22;24.33;;;15.77;;
3849;SDS011;1940;51.052;13.678;2022-08-19T07:55:49;21.67;;;15.20;;
3849;SDS011;1940;51.052;13.678;2022-08-19T07:58:16;20.83;;;14.43;;
3849;SDS011;1940;51.052;13.678;2022-08-19T08:00:44;23.70;;;15.27;;
3849;SDS011;1940;51.052;13.678;2022-08-19T08:03:11;20.00;;;14.27;;
3849;SDS011;1940;51.052;13.678;2022-08-19T08:05:37;23.17;;;14.27;;
3849;SDS011;1940;51.052;13.678;2022-08-19T08:08:21;21.13;;;14.47;;
3849;SDS011;1940;51.052;13.678;2022-08-19T08:11:07;22.80;;;14.00;;
3849;SDS011;1940;51.052;13.678;2022-08-19T08:13:33;24.67;;;16.10;;
3849;SDS011;1940;51.052;13.678;2022-08-19T08:16:00;26.83;;;15.70;;
3849;SDS011;1940;51.052;13.678;2022-08-19T08:18:27;22.10;;;14.67;;
3849;SDS011;1940;51.052;13.678;2022-08-19T08:20:52;22.37;;;14.73;;
3849;SDS011;1940;51.052;13.678;2022-08-19T08:23:18;22.43;;;14.63;;
3849;SDS011;1940;51.052;13.678;2022-08-19T08:25:47;19.87;;;14.30;;
3849;SDS011;1940;51.052;13.678;2022-08-19T08:28:13;18.80;;;12.73;;
3849;SDS011;1940;51.052;13.678;2022-08-19T08:30:39;19.33;;;13.60;;
3849;SDS011;1940;51.052;13.678;2022-08-19T08:33:07;15.53;;;12.10;;
3849;SDS011;1940;51.052;13.678;2022-08-19T08:35:33;15.50;;;11.60;;
3849;SDS011;1940;51.052;13.678;2022-08-19T08:37:58;16.63;;;11.20;;
3849;SDS011;1940;51.052;13.678;2022-08-19T08:40:28;15.60;;;11.27;;
3849;SDS011;1940;51.052;13.678;2022-08-19T08:43:11;16.07;;;11.70;;
3849;SDS011;1940;51.052;13.678;2022-08-19T08:46:01;15.10;;;11.10;;
3849;SDS011;1940;51.052;13.678;2022-08-19T08:51:12;14.77;;;10.57;;
3849;SDS011;1940;51.052;13.678;2022-08-19T08:53:49;18.40;;;12.10;;
3849;SDS011;1940;51.052;13.678;2022-08-19T08:56:16;14.00;;;10.80;;
3849;SDS011;1940;51.052;13.678;2022-08-19T08:58:54;17.70;;;12.03;;
3849;SDS011;1940;51.052;13.678;2022-08-19T09:01:28;15.23;;;11.20;;
3849;SDS011;1940;51.052;13.678;2022-08-19T09:03:54;17.73;;;12.40;;
3849;SDS011;1940;51.052;13.678;2022-08-19T09:06:40;18.57;;;12.93;;
3849;SDS011;1940;51.052;13.678;2022-08-19T09:09:14;16.60;;;11.90;;
3849;SDS011;1940;51.052;13.678;2022-08-19T09:11:47;14.73;;;11.20;;
3849;SDS011;1940;51.052;13.678;2022-08-19T09:14:20;17.70;;;11.70;;
3849;SDS011;1940;51.052;13.678;2022-08-19T09:17:11;17.70;;;12.43;;
3849;SDS011;1940;51.052;13.678;2022-08-19T09:19:58;15.77;;;12.03;;
3849;SDS011;1940;51.052;13.678;2022-08-19T09:22:29;20.27;;;12.47;;
3849;SDS011;1940;51.052;13.678;2022-08-19T09:24:55;16.30;;;12.07;;
3849;SDS011;1940;51.052;13.678;2022-08-19T09:27:21;21.53;;;12.53;;
3849;SDS011;1940;51.052;13.678;2022-08-19T09:29:49;16.40;;;11.87;;
3849;SDS011;1940;51.052;13.678;2022-08-19T09:32:15;17.90;;;12.60;;
3849;SDS011;1940;51.052;13.678;2022-08-19T09:34:42;18.90;;;12.20;;
3849;SDS011;1940;51.052;13.678;2022-08-19T09:37:08;16.60;;;12.27;;
3849;SDS011;1940;51.052;13.678;2022-08-19T09:39:34;17.40;;;12.80;;
3849;SDS011;1940;51.052;13.678;2022-08-19T09:41:59;18.10;;;13.07;;
3849;SDS011;1940;51.052;13.678;2022-08-19T09:47:47;17.57;;;12.77;;
3849;SDS011;1940;51.052;13.678;2022-08-19T09:53:36;20.83;;;13.20;;
3849;SDS011;1940;51.052;13.678;2022-08-19T09:56:04;20.43;;;12.97;;
3849;SDS011;1940;51.052;13.678;2022-08-19T09:58:30;16.60;;;12.70;;
3849;SDS011;1940;51.052;13.678;2022-08-19T10:00:57;17.10;;;11.40;;
3849;SDS011;1940;51.052;13.678;2022-08-19T10:03:24;15.50;;;11.23;;
3849;SDS011;1940;51.052;13.678;2022-08-19T10:05:51;16.77;;;10.40;;
3849;SDS011;1940;51.052;13.678;2022-08-19T10:08:24;14.60;;;10.03;;
3849;SDS011;1940;51.052;13.678;2022-08-19T10:10:52;17.50;;;10.00;;
3849;SDS011;1940;51.052;13.678;2022-08-19T10:13:18;14.50;;;9.60;;
3849;SDS011;1940;51.052;13.678;2022-08-19T10:15:50;12.57;;;8.50;;
3849;SDS011;1940;51.052;13.678;2022-08-19T10:18:16;11.57;;;8.60;;
3849;SDS011;1940;51.052;13.678;2022-08-19T10:20:44;10.70;;;7.83;;
3849;SDS011;1940;51.052;13.678;2022-08-19T10:23:10;9.37;;;7.67;;
3849;SDS011;1940;51.052;13.678;2022-08-19T10:25:36;8.83;;;7.37;;
3849;SDS011;1940;51.052;13.678;2022-08-19T10:28:02;7.33;;;6.17;;
3849;SDS011;1940;51.052;13.678;2022-08-19T10:30:28;8.60;;;6.80;;
3849;SDS011;1940;51.052;13.678;2022-08-19T10:32:53;11.33;;;6.80;;
3849;SDS011;1940;51.052;13.678;2022-08-19T10:42:04;8.80;;;5.53;;
3849;SDS011;1940;51.052;13.678;2022-08-19T10:47:53;7.30;;;4.80;;
3849;SDS011;1940;51.052;13.678;2022-08-19T10:50:19;6.00;;;4.53;;
3849;SDS011;1940;51.052;13.678;2022-08-19T10:53:04;4.90;;;4.40;;
3849;SDS011;1940;51.052;13.678;2022-08-19T10:55:33;7.70;;;5.00;;
3849;SDS011;1940;51.052;13.678;2022-08-19T10:58:18;7.00;;;5.80;;
3849;SDS011;1940;51.052;13.678;2022-08-19T11:00:52;8.43;;;5.67;;
3849;SDS011;1940;51.052;13.678;2022-08-19T11:03:19;11.40;;;8.47;;
3849;SDS011;1940;51.052;13.678;2022-08-19T11:05:45;8.53;;;7.00;;
3849;SDS011;1940;51.052;13.678;2022-08-19T11:08:11;9.50;;;7.33;;
3849;SDS011;1940;51.052;13.678;2022-08-19T11:10:36;9.07;;;7.60;;
3849;SDS011;1940;51.052;13.678;2022-08-19T11:13:07;11.80;;;9.03;;
3849;SDS011;1940;51.052;13.678;2022-08-19T11:15:33;11.57;;;9.07;;
3849;SDS011;1940;51.052;13.678;2022-08-19T11:17:59;12.57;;;9.27;;
3849;SDS011;1940;51.052;13.678;2022-08-19T11:20:25;14.63;;;10.17;;
3849;SDS011;1940;51.052;13.678;2022-08-19T11:22:51;15.70;;;10.17;;
3849;SDS011;1940;51.052;13.678;2022-08-19T11:25:39;11.97;;;9.07;;
3849;SDS011;1940;51.052;13.678;2022-08-19T11:28:05;18.00;;;10.70;;
3849;SDS011;1940;51.052;13.678;2022-08-19T11:30:30;15.03;;;11.07;;
3849;SDS011;1940;51.052;13.678;2022-08-19T11:32:56;13.10;;;10.27;;
3849;SDS011;1940;51.052;13.678;2022-08-19T11:35:22;13.40;;;9.80;;
3849;SDS011;1940;51.052;13.678;2022-08-19T11:37:48;17.10;;;9.67;;
3849;SDS011;1940;51.052;13.678;2022-08-19T11:40:13;13.00;;;10.10;;
3849;SDS011;1940;51.052;13.678;2022-08-19T11:42:39;15.00;;;11.00;;
3849;SDS011;1940;51.052;13.678;2022-08-19T11:45:20;13.30;;;9.90;;
3849;SDS011;1940;51.052;13.678;2022-08-19T11:47:46;20.90;;;10.97;;
3849;SDS011;1940;51.052;13.678;2022-08-19T11:50:12;14.83;;;10.20;;
3849;SDS011;1940;51.052;13.678;2022-08-19T11:52:38;22.50;;;11.43;;
3849;SDS011;1940;51.052;13.678;2022-08-19T11:55:04;18.43;;;10.80;;
3849;SDS011;1940;51.052;13.678;2022-08-19T11:57:30;13.03;;;10.50;;
3849;SDS011;1940;51.052;13.678;2022-08-19T11:59:56;17.50;;;11.53;;
3849;SDS011;1940;51.052;13.678;2022-08-19T12:02:21;16.07;;;12.17;;
3849;SDS011;1940;51.052;13.678;2022-08-19T12:08:09;25.47;;;13.77;;
3849;SDS011;1940;51.052;13.678;2022-08-19T12:10:36;17.57;;;12.90;;
3849;SDS011;1940;51.052;13.678;2022-08-19T12:13:02;18.20;;;12.47;;
3849;SDS011;1940;51.052;13.678;2022-08-19T12:15:28;18.13;;;13.20;;
3849;SDS011;1940;51.052;13.678;2022-08-19T12:17:54;17.40;;;12.20;;
3849;SDS011;1940;51.052;13.678;2022-08-19T12:20:21;19.77;;;13.90;;
3849;SDS011;1940;51.052;13.678;2022-08-19T12:22:48;22.83;;;13.93;;
3849;SDS011;1940;51.052;13.678;2022-08-19T12:25:13;25.10;;;16.07;;
3849;SDS011;1940;51.052;13.678;2022-08-19T12:27:39;23.60;;;15.60;;
3849;SDS011;1940;51.052;13.678;2022-08-19T12:30:05;23.20;;;14.90;;
3849;SDS011;1940;51.052;13.678;2022-08-19T12:32:32;25.30;;;15.67;;
3849;SDS011;1940;51.052;13.678;2022-08-19T12:34:58;21.90;;;14.90;;
3849;SDS011;1940;51.052;13.678;2022-08-19T12:37:23;21.80;;;15.10;;
3849;SDS011;1940;51.052;13.678;2022-08-19T12:39:49;23.87;;;16.20;;
3849;SDS011;1940;51.052;13.678;2022-08-19T12:42:14;23.50;;;15.00;;
3849;SDS011;1940;51.052;13.678;2022-08-19T12:44:41;21.13;;;14.73;;
3849;SDS011;1940;51.052;13.678;2022-08-19T12:47:08;24.53;;;15.53;;
3849;SDS011;1940;51.052;13.678;2022-08-19T12:49:35;23.53;;;14.83;;
3849;SDS011;1940;51.052;13.678;2022-08-19T12:52:02;25.83;;;17.23;;
3849;SDS011;1940;51.052;13.678;2022-08-19T12:54:28;29.63;;;17.13;;
3849;SDS011;1940;51.052;13.678;2022-08-19T12:56:55;29.80;;;18.37;;
3849;SDS011;1940;51.052;13.678;2022-08-19T12:59:21;25.67;;;17.30;;
3849;SDS011;1940;51.052;13.678;2022-08-19T13:01:47;24.13;;;16.10;;
3849;SDS011;1940;51.052;13.678;2022-08-19T13:04:13;25.63;;;16.73;;
3849;SDS011;1940;51.052;13.678;2022-08-19T13:06:38;27.00;;;15.63;;
3849;SDS011;1940;51.052;13.678;2022-08-19T13:09:04;30.37;;;17.23;;
3849;SDS011;1940;51.052;13.678;2022-08-19T13:11:30;24.50;;;16.53;;
3849;SDS011;1940;51.052;13.678;2022-08-19T13:13:59;26.83;;;18.23;;
3849;SDS011;1940;51.052;13.678;2022-08-19T13:16:25;30.90;;;20.83;;
3849;SDS011;1940;51.052;13.678;2022-08-19T13:18:52;28.43;;;18.33;;
3849;SDS011;1940;51.052;13.678;2022-08-19T13:21:20;26.00;;;18.00;;
3849;SDS011;1940;51.052;13.678;2022-08-19T13:23:47;24.10;;;16.80;;
3849;SDS011;1940;51.052;13.678;2022-08-19T13:26:13;28.30;;;18.23;;
3849;SDS011;1940;51.052;13.678;2022-08-19T13:28:40;26.87;;;17.37;;
3849;SDS011;1940;51.052;13.678;2022-08-19T13:31:26;27.27;;;17.17;;
3849;SDS011;1940;51.052;13.678;2022-08-19T13:34:11;26.33;;;18.20;;
3849;SDS011;1940;51.052;13.678;2022-08-19T13:36:37;29.53;;;20.33;;
3849;SDS011;1940;51.052;13.678;2022-08-19T13:39:04;30.10;;;20.37;;
3849;SDS011;1940;51.052;13.678;2022-08-19T13:41:32;37.30;;;21.50;;
3849;SDS011;1940;51.052;13.678;2022-08-19T13:43:58;29.77;;;19.27;;
3849;SDS011;1940;51.052;13.678;2022-08-19T13:46:24;34.03;;;21.63;;
3849;SDS011;1940;51.052;13.678;2022-08-19T13:48:49;28.03;;;18.87;;
3849;SDS011;1940;51.052;13.678;2022-08-19T13:51:15;32.27;;;20.90;;
3849;SDS011;1940;51.052;13.678;2022-08-19T13:53:42;34.03;;;20.73;;
3849;SDS011;1940;51.052;13.678;2022-08-19T13:56:09;28.80;;;17.80;;
3849;SDS011;1940;51.052;13.678;2022-08-19T13:58:37;32.33;;;20.00;;
3849;SDS011;1940;51.052;13.678;2022-08-19T14:01:03;30.23;;;19.50;;
3849;SDS011;1940;51.052;13.678;2022-08-19T14:03:31;35.10;;;19.97;;
3849;SDS011;1940;51.052;13.678;2022-08-19T14:05:57;32.57;;;20.77;;
3849;SDS011;1940;51.052;13.678;2022-08-19T14:08:23;31.93;;;19.77;;
3849;SDS011;1940;51.052;13.678;2022-08-19T14:10:49;28.67;;;19.50;;
3849;SDS011;1940;51.052;13.678;2022-08-19T14:13:16;28.27;;;19.60;;
3849;SDS011;1940;51.052;13.678;2022-08-19T14:15:43;32.10;;;20.70;;
3849;SDS011;1940;51.052;13.678;2022-08-19T14:18:09;36.70;;;21.60;;
3849;SDS011;1940;51.052;13.678;2022-08-19T14:20:35;32.87;;;21.10;;
3849;SDS011;1940;51.052;13.678;2022-08-19T14:23:01;31.43;;;20.97;;
3849;SDS011;1940;51.052;13.678;2022-08-19T14:25:28;31.60;;;20.63;;
3849;SDS011;1940;51.052;13.678;2022-08-19T14:27:55;34.73;;;21.20;;
3849;SDS011;1940;51.052;13.678;2022-08-19T14:30:23;33.70;;;20.97;;
3849;SDS011;1940;51.052;13.678;2022-08-19T14:32:54;33.40;;;21.97;;
3849;SDS011;1940;51.052;13.678;2022-08-19T14:35:21;34.33;;;20.77;;
3849;SDS011;1940;51.052;13.678;2022-08-19T14:37:48;34.83;;;22.53;;
3849;SDS011;1940;51.052;13.678;2022-08-19T14:40:16;37.10;;;22.03;;
3849;SDS011;1940;51.052;13.678;2022-08-19T14:42:45;33.30;;;21.80;;
3849;SDS011;1940;51.052;13.678;2022-08-19T14:45:11;32.37;;;20.83;;
3849;SDS011;1940;51.052;13.678;2022-08-19T14:47:37;32.93;;;21.73;;
3849;SDS011;1940;51.052;13.678;2022-08-19T14:50:04;37.63;;;21.23;;
3849;SDS011;1940;51.052;13.678;2022-08-19T14:52:32;35.63;;;21.30;;
3849;SDS011;1940;51.052;13.678;2022-08-19T14:54:57;34.43;;;21.93;;
3849;SDS011;1940;51.052;13.678;2022-08-19T14:57:23;35.90;;;21.20;;
3849;SDS011;1940;51.052;13.678;2022-08-19T14:59:48;33.73;;;21.20;;
3849;SDS011;1940;51.052;13.678;2022-08-19T15:02:14;33.73;;;19.43;;
3849;SDS011;1940;51.052;13.678;2022-08-19T15:04:39;34.00;;;21.20;;